createdAt,value
2023-06-06T00:01:24.397Z,4.60
2023-06-06T00:03:54.858Z,4.60
2023-06-06T00:06:28.884Z,5.10
2023-06-06T00:08:58.213Z,5.10
2023-06-06T00:11:29.771Z,4.80
2023-06-06T00:13:58.683Z,5.00
2023-06-06T00:16:34.523Z,4.70
2023-06-06T00:19:22.261Z,4.90
2023-06-06T00:21:54.835Z,4.60
2023-06-06T00:24:30.902Z,5.40
2023-06-06T00:27:04.910Z,5.10
2023-06-06T00:29:38.724Z,4.90
2023-06-06T00:32:09.300Z,5.10
2023-06-06T00:34:55.469Z,4.80
2023-06-06T00:37:23.848Z,5.20
2023-06-06T00:39:51.906Z,4.50
2023-06-06T00:42:25.917Z,4.70
2023-06-06T00:44:59.627Z,4.80
2023-06-06T00:47:30.837Z,4.60
2023-06-06T00:50:27.295Z,4.80
2023-06-06T00:53:04.345Z,4.60
2023-06-06T00:55:47.080Z,4.90
2023-06-06T00:58:52.854Z,5.00
2023-06-06T01:01:21.077Z,4.60
2023-06-06T01:03:49.708Z,5.40
2023-06-06T01:06:24.035Z,5.00
2023-06-06T01:08:55.479Z,4.70
2023-06-06T01:11:34.112Z,4.90
2023-06-06T01:14:32.895Z,5.00
2023-06-06T01:17:06.200Z,4.70
2023-06-06T01:19:34.366Z,5.00
2023-06-06T01:22:14.500Z,4.90
2023-06-06T01:24:48.632Z,4.90
2023-06-06T01:27:19.884Z,4.80
2023-06-06T01:29:49.400Z,4.70
2023-06-06T01:32:24.552Z,4.90
2023-06-06T01:35:17.494Z,5.00
2023-06-06T01:37:51.297Z,4.40
2023-06-06T01:40:29.498Z,5.10
2023-06-06T01:43:04.750Z,4.80
2023-06-06T01:45:33.431Z,5.00
2023-06-06T01:48:25.880Z,4.70
2023-06-06T01:50:55.886Z,4.50
2023-06-06T01:53:24.778Z,4.50
2023-06-06T01:55:57.976Z,4.60
2023-06-06T01:58:47.974Z,4.60
2023-06-06T02:01:19.214Z,4.40
2023-06-06T02:03:47.278Z,4.20
2023-06-06T02:06:16.584Z,4.60
2023-06-06T02:08:50.698Z,4.90
2023-06-06T02:11:24.598Z,4.50
2023-06-06T02:13:58.817Z,4.50
2023-06-06T02:16:31.456Z,5.10
2023-06-06T02:19:08.991Z,4.60
2023-06-06T02:21:41.164Z,4.10
2023-06-06T02:24:26.234Z,4.50
2023-06-06T02:27:10.995Z,4.60
2023-06-06T02:29:39.183Z,4.50
2023-06-06T02:32:37.507Z,4.70
2023-06-06T02:35:06.375Z,4.90
2023-06-06T02:37:37.201Z,4.80
2023-06-06T02:40:20.818Z,4.40
2023-06-06T02:42:53.401Z,4.70
2023-06-06T02:45:27.714Z,4.80
2023-06-06T02:48:00.533Z,4.70
2023-06-06T02:50:33.601Z,4.60
2023-06-06T02:53:04.835Z,4.50
2023-06-06T02:55:41.108Z,4.80
2023-06-06T02:58:32.691Z,4.00
2023-06-06T03:01:04.815Z,4.50
2023-06-06T03:03:51.379Z,4.10
2023-06-06T03:06:34.134Z,4.40
2023-06-06T03:09:05.464Z,4.70
2023-06-06T03:12:22.694Z,5.20
2023-06-06T03:14:58.094Z,4.80
2023-06-06T03:17:45.305Z,4.70
2023-06-06T03:20:28.378Z,4.50
2023-06-06T03:23:14.474Z,4.80
2023-06-06T03:25:50.739Z,4.60
2023-06-06T03:28:25.471Z,4.90
2023-06-06T03:30:58.419Z,4.80
2023-06-06T03:33:27.353Z,5.10
2023-06-06T03:35:59.620Z,4.60
2023-06-06T03:38:33.019Z,5.00
2023-06-06T03:41:01.092Z,4.80
2023-06-06T03:43:34.081Z,4.50
2023-06-06T03:46:11.605Z,4.80
2023-06-06T03:48:45.489Z,4.20
2023-06-06T03:51:17.450Z,4.20
2023-06-06T03:53:51.355Z,5.00
2023-06-06T03:56:25.191Z,4.40
2023-06-06T03:59:00.024Z,4.50
2023-06-06T04:01:38.937Z,4.00
2023-06-06T04:04:08.441Z,3.90
2023-06-06T04:06:40.908Z,3.50
2023-06-06T04:09:35.515Z,3.70
2023-06-06T04:12:06.575Z,3.50
2023-06-06T04:14:43.100Z,3.90
2023-06-06T04:17:15.993Z,3.60
2023-06-06T04:19:50.313Z,3.70
2023-06-06T04:22:24.196Z,3.00
2023-06-06T04:24:54.960Z,3.30
2023-06-06T04:27:31.741Z,3.00
2023-06-06T04:30:01.240Z,3.30
2023-06-06T04:32:34.432Z,2.90
2023-06-06T04:35:03.320Z,3.00
2023-06-06T04:37:43.306Z,2.80
2023-06-06T04:40:17.079Z,2.30
2023-06-06T04:42:51.458Z,2.50
2023-06-06T04:45:24.768Z,2.40
2023-06-06T04:47:57.493Z,2.10
2023-06-06T04:50:37.630Z,2.40
2023-06-06T04:53:30.902Z,2.30
2023-06-06T04:55:59.175Z,2.40
2023-06-06T04:58:30.213Z,2.20
2023-06-06T05:01:04.531Z,2.30
2023-06-06T05:03:43.959Z,2.10
2023-06-06T05:06:12.661Z,2.20
2023-06-06T05:08:46.078Z,2.30
2023-06-06T05:11:14.863Z,2.10
2023-06-06T05:13:42.714Z,2.20
2023-06-06T05:16:11.933Z,1.80
2023-06-06T05:18:39.806Z,1.80
2023-06-06T05:21:13.230Z,2.00
2023-06-06T05:23:42.960Z,1.90
2023-06-06T05:26:11.694Z,2.00
2023-06-06T05:28:44.479Z,2.40
2023-06-06T05:31:18.608Z,2.00
2023-06-06T05:34:12.270Z,1.80
2023-06-06T05:36:45.866Z,1.40
2023-06-06T05:39:19.676Z,1.50
2023-06-06T05:41:56.197Z,1.50
2023-06-06T05:44:27.178Z,1.30
2023-06-06T05:47:00.362Z,1.30
2023-06-06T05:49:34.377Z,1.30
2023-06-06T05:52:03.905Z,1.30
2023-06-06T05:54:48.936Z,1.40
2023-06-06T05:57:24.064Z,1.30
2023-06-06T06:02:22.859Z,1.20
2023-06-06T06:04:58.773Z,1.10
2023-06-06T06:07:29.801Z,1.00
2023-06-06T06:09:57.765Z,1.20
2023-06-06T06:12:46.222Z,1.10
2023-06-06T06:15:15.931Z,1.20
2023-06-06T06:17:43.831Z,1.10
2023-06-06T06:20:14.869Z,1.10
2023-06-06T06:22:50.181Z,1.20
2023-06-06T06:25:24.089Z,1.60
2023-06-06T06:28:02.387Z,1.30
2023-06-06T06:30:45.220Z,1.40
2023-06-06T06:33:17.280Z,1.60
2023-06-06T06:35:50.068Z,1.70
2023-06-06T06:38:30.050Z,1.90
2023-06-06T06:40:58.807Z,1.40
2023-06-06T06:43:37.232Z,1.40
2023-06-06T06:46:15.738Z,1.50
2023-06-06T06:49:12.007Z,1.10
2023-06-06T06:51:45.983Z,1.50
2023-06-06T06:54:23.274Z,1.10
2023-06-06T06:57:22.068Z,1.30
2023-06-06T07:00:04.988Z,1.10
2023-06-06T07:02:41.067Z,1.20
2023-06-06T07:05:17.249Z,1.20
2023-06-06T07:08:02.109Z,1.20
2023-06-06T07:10:33.436Z,1.20
2023-06-06T07:13:01.413Z,1.20
2023-06-06T07:15:30.798Z,1.20
2023-06-06T07:18:02.045Z,1.30
2023-06-06T07:21:15.998Z,1.10
2023-06-06T07:26:12.344Z,1.20
2023-06-06T07:28:42.957Z,1.30
2023-06-06T07:31:16.697Z,1.10
2023-06-06T07:34:16.726Z,1.20
2023-06-06T07:36:47.766Z,1.20
2023-06-06T07:39:18.698Z,1.20
2023-06-06T07:42:09.285Z,1.20
2023-06-06T07:44:49.659Z,1.30
2023-06-06T07:47:28.331Z,1.40
2023-06-06T07:50:07.600Z,1.20
2023-06-06T07:52:46.238Z,1.10
2023-06-06T07:55:14.097Z,1.30
2023-06-06T07:57:46.049Z,1.30
2023-06-06T08:00:22.578Z,1.30
2023-06-06T08:02:57.053Z,1.30
2023-06-06T08:05:38.328Z,1.20
2023-06-06T08:08:11.724Z,1.30
2023-06-06T08:10:49.629Z,1.20
2023-06-06T08:13:17.623Z,1.40
2023-06-06T08:15:45.570Z,1.60
2023-06-06T08:18:19.295Z,1.40
2023-06-06T08:20:55.239Z,2.00
2023-06-06T08:23:29.081Z,1.70
2023-06-06T08:25:57.237Z,1.70
2023-06-06T08:28:58.800Z,1.80
2023-06-06T08:31:26.893Z,1.60
2023-06-06T08:34:07.816Z,1.60
2023-06-06T08:36:41.142Z,1.70
2023-06-06T08:39:11.645Z,2.20
2023-06-06T08:41:55.208Z,2.30
2023-06-06T08:44:24.271Z,2.40
2023-06-06T08:47:15.508Z,2.20
2023-06-06T08:49:47.159Z,2.10
2023-06-06T08:52:21.480Z,2.30
2023-06-06T08:55:07.461Z,2.90
2023-06-06T08:57:47.561Z,2.40
2023-06-06T09:00:24.727Z,3.50
2023-06-06T09:03:06.786Z,3.30
2023-06-06T09:06:08.023Z,3.10
2023-06-06T09:08:41.144Z,3.20
2023-06-06T09:11:20.179Z,3.70
2023-06-06T09:13:51.312Z,3.50
2023-06-06T09:16:28.568Z,3.30
2023-06-06T09:19:04.195Z,3.70
2023-06-06T09:21:37.886Z,3.50
2023-06-06T09:24:16.794Z,3.80
2023-06-06T09:27:00.541Z,4.10
2023-06-06T09:29:40.268Z,4.80
2023-06-06T09:32:16.378Z,4.20
2023-06-06T09:34:58.633Z,4.40
2023-06-06T09:37:35.264Z,4.60
2023-06-06T09:40:22.514Z,3.60
2023-06-06T09:43:03.317Z,3.80
2023-06-06T09:45:53.435Z,4.50
2023-06-06T09:48:29.117Z,5.00
2023-06-06T09:51:04.795Z,4.80
2023-06-06T09:53:33.416Z,4.70
2023-06-06T09:56:20.126Z,3.90
2023-06-06T09:58:51.048Z,3.50
2023-06-06T10:01:19.545Z,3.70
2023-06-06T10:03:47.507Z,4.10
2023-06-06T10:06:16.389Z,4.20
2023-06-06T10:08:49.152Z,4.60
2023-06-06T10:11:17.564Z,4.50
2023-06-06T10:13:53.196Z,4.70
2023-06-06T10:16:33.289Z,4.30
2023-06-06T10:19:01.684Z,4.60
2023-06-06T10:21:30.126Z,4.50
2023-06-06T10:23:58.569Z,3.90
2023-06-06T10:26:48.438Z,4.10
2023-06-06T10:29:23.777Z,4.80
2023-06-06T10:32:19.136Z,4.30
2023-06-06T10:34:54.466Z,4.90
2023-06-06T10:37:40.569Z,5.30
2023-06-06T10:40:17.496Z,5.50
2023-06-06T10:42:50.595Z,4.80
2023-06-06T10:45:38.677Z,4.40
2023-06-06T10:48:09.881Z,4.20
2023-06-06T10:50:42.705Z,4.50
2023-06-06T10:53:26.700Z,4.90
2023-06-06T10:56:04.833Z,4.20
2023-06-06T10:58:40.922Z,4.20
2023-06-06T11:01:22.558Z,4.10
2023-06-06T11:03:51.699Z,4.60
2023-06-06T11:06:27.101Z,5.30
2023-06-06T11:09:02.110Z,5.20
2023-06-06T11:11:37.849Z,3.40
2023-06-06T11:14:17.790Z,3.70
2023-06-06T11:16:50.694Z,3.30
2023-06-06T11:19:24.726Z,3.50
2023-06-06T11:22:00.803Z,3.50
2023-06-06T11:24:33.935Z,3.70
2023-06-06T11:27:07.800Z,3.40
2023-06-06T11:29:44.386Z,3.30
2023-06-06T11:32:22.621Z,3.50
2023-06-06T11:34:58.699Z,3.50
2023-06-06T11:37:30.843Z,3.50
2023-06-06T11:40:28.935Z,3.40
2023-06-06T11:43:11.097Z,3.50
2023-06-06T11:45:44.122Z,3.90
2023-06-06T11:48:34.982Z,3.60
2023-06-06T11:51:27.070Z,3.60
2023-06-06T11:54:11.599Z,3.60
2023-06-06T11:56:43.903Z,3.70
2023-06-06T12:02:10.055Z,3.20
2023-06-06T12:04:57.085Z,3.20
2023-06-06T12:07:38.878Z,3.20
2023-06-06T12:10:07.751Z,3.50
2023-06-06T12:12:45.140Z,3.30
2023-06-06T12:15:20.959Z,3.40
2023-06-06T12:17:50.046Z,3.40
2023-06-06T12:20:25.524Z,3.30
2023-06-06T12:22:55.043Z,3.00
2023-06-06T12:25:29.749Z,2.90
2023-06-06T12:28:18.846Z,2.90
2023-06-06T12:30:53.570Z,2.80
2023-06-06T12:33:48.061Z,2.90
2023-06-06T12:36:25.921Z,2.80
2023-06-06T12:39:11.444Z,2.30
2023-06-06T12:41:43.517Z,2.90
2023-06-06T12:44:18.976Z,3.00
2023-06-06T12:46:50.153Z,3.30
2023-06-06T12:49:21.350Z,3.00
2023-06-06T12:51:52.312Z,3.30
2023-06-06T12:54:35.863Z,3.50
2023-06-06T12:57:25.823Z,3.20
2023-06-06T13:00:04.145Z,3.50
2023-06-06T13:02:40.363Z,3.10
2023-06-06T13:05:13.631Z,3.10
2023-06-06T13:07:45.385Z,3.20
2023-06-06T13:10:23.977Z,3.50
2023-06-06T13:13:00.838Z,3.30
2023-06-06T13:15:34.682Z,3.30
2023-06-06T13:18:05.390Z,3.10
2023-06-06T13:20:36.527Z,3.50
2023-06-06T13:23:04.513Z,3.30
2023-06-06T13:25:38.517Z,3.80
2023-06-06T13:28:07.706Z,3.20
2023-06-06T13:30:55.068Z,3.80
2023-06-06T13:34:00.207Z,3.70
2023-06-06T13:36:36.366Z,3.90
2023-06-06T13:39:09.528Z,3.60
2023-06-06T13:41:46.822Z,3.20
2023-06-06T13:44:29.842Z,3.60
2023-06-06T13:47:12.163Z,3.40
2023-06-06T13:49:48.006Z,3.40
2023-06-06T13:52:21.295Z,4.40
2023-06-06T13:55:07.496Z,4.30
2023-06-06T13:57:42.213Z,3.60
2023-06-06T14:00:13.141Z,3.70
2023-06-06T14:02:47.022Z,3.50
2023-06-06T14:05:33.625Z,3.80
2023-06-06T14:08:06.988Z,3.80
2023-06-06T14:10:37.991Z,3.60
2023-06-06T14:13:11.171Z,3.70
2023-06-06T14:15:44.503Z,3.70
2023-06-06T14:18:18.344Z,3.60
2023-06-06T14:21:13.092Z,3.90
2023-06-06T14:23:41.874Z,4.00
2023-06-06T14:26:10.279Z,4.00
2023-06-06T14:28:38.249Z,4.30
2023-06-06T14:31:08.796Z,4.40
2023-06-06T14:33:36.852Z,4.40
2023-06-06T14:36:20.271Z,4.30
2023-06-06T14:38:48.288Z,4.00
2023-06-06T14:41:16.841Z,4.40
2023-06-06T14:43:45.325Z,4.40
2023-06-06T14:46:18.124Z,4.00
2023-06-06T14:48:51.813Z,4.50
2023-06-06T14:51:22.645Z,4.30
2023-06-06T14:54:03.316Z,4.40
2023-06-06T14:56:47.593Z,4.10
2023-06-06T14:59:27.850Z,4.00
2023-06-06T15:01:57.548Z,4.10
2023-06-06T15:04:51.844Z,4.00
2023-06-06T15:07:33.111Z,3.80
2023-06-06T15:10:06.316Z,4.00
2023-06-06T15:12:34.582Z,3.90
2023-06-06T15:15:04.991Z,3.60
2023-06-06T15:17:40.597Z,4.30
2023-06-06T15:20:15.828Z,4.00
2023-06-06T15:22:46.961Z,4.40
2023-06-06T15:25:17.495Z,4.00
2023-06-06T15:30:06.317Z,5.30
2023-06-06T15:32:34.127Z,4.90
2023-06-06T15:35:03.616Z,5.30
2023-06-06T15:37:35.184Z,5.10
2023-06-06T15:40:08.367Z,4.60
2023-06-06T15:42:52.111Z,4.80
2023-06-06T15:45:28.237Z,4.30
2023-06-06T15:48:01.200Z,4.40
2023-06-06T15:50:31.888Z,4.50
2023-06-06T15:53:15.208Z,4.00
2023-06-06T15:56:06.549Z,4.30
2023-06-06T15:58:42.697Z,5.40
2023-06-06T16:01:16.742Z,4.00
2023-06-06T16:03:47.388Z,3.40
2023-06-06T16:06:27.511Z,3.30
2023-06-06T16:09:01.524Z,4.90
2023-06-06T16:11:40.677Z,3.70
2023-06-06T16:14:13.879Z,3.60
2023-06-06T16:16:50.399Z,3.00
2023-06-06T16:19:24.149Z,3.00
2023-06-06T16:21:56.715Z,3.20
2023-06-06T16:24:24.973Z,2.90
2023-06-06T16:26:53.069Z,5.90
2023-06-06T16:29:22.800Z,4.10
2023-06-06T16:32:15.864Z,2.70
2023-06-06T16:34:46.032Z,2.60
2023-06-06T16:37:13.998Z,2.30
2023-06-06T16:39:45.057Z,2.50
2023-06-06T16:42:31.835Z,2.40
2023-06-06T16:45:05.354Z,2.40
2023-06-06T16:47:38.704Z,2.30
2023-06-06T16:50:12.973Z,2.20
2023-06-06T16:53:22.308Z,2.30
2023-06-06T16:55:50.180Z,2.10
2023-06-06T16:58:18.143Z,2.20
2023-06-06T17:00:45.950Z,2.10
2023-06-06T17:03:21.615Z,2.20
2023-06-06T17:06:04.006Z,2.20
2023-06-06T17:08:55.100Z,2.00
2023-06-06T17:11:24.177Z,2.30
2023-06-06T17:13:52.359Z,2.10
2023-06-06T17:16:21.195Z,2.00
2023-06-06T17:18:49.223Z,2.20
2023-06-06T17:21:23.334Z,1.90
2023-06-06T17:23:56.644Z,2.20
2023-06-06T17:26:29.330Z,1.90
2023-06-06T17:31:39.323Z,2.00
2023-06-06T17:34:23.637Z,2.30
2023-06-06T17:36:59.493Z,2.20
2023-06-06T17:39:33.952Z,2.30
2023-06-06T17:42:08.741Z,2.50
2023-06-06T17:45:01.683Z,2.20
2023-06-06T17:47:39.411Z,3.40
2023-06-06T17:50:10.418Z,5.20
2023-06-06T17:52:59.260Z,5.50
2023-06-06T17:55:45.231Z,5.00
2023-06-06T17:58:18.893Z,4.30
2023-06-06T18:00:53.344Z,4.40
2023-06-06T18:03:29.395Z,3.80
2023-06-06T18:06:21.679Z,4.40
2023-06-06T18:08:59.216Z,3.80
2023-06-06T18:11:27.693Z,3.60
2023-06-06T18:13:56.293Z,3.90
2023-06-06T18:16:24.261Z,3.70
2023-06-06T18:19:27.136Z,3.90
2023-06-06T18:22:04.643Z,3.70
2023-06-06T18:24:39.466Z,3.70
2023-06-06T18:27:14.186Z,3.80
2023-06-06T18:29:44.832Z,3.90
2023-06-06T18:32:33.396Z,3.70
2023-06-06T18:35:09.144Z,3.40
2023-06-06T18:38:05.855Z,2.90
2023-06-06T18:40:33.773Z,2.70
2023-06-06T18:43:19.634Z,3.00
2023-06-06T18:46:09.360Z,2.90
2023-06-06T18:48:45.371Z,2.90
2023-06-06T18:51:16.318Z,2.80
2023-06-06T18:53:44.590Z,2.90
2023-06-06T18:56:17.685Z,2.80
2023-06-06T18:58:52.308Z,3.00
2023-06-06T19:01:32.539Z,3.20
2023-06-06T19:04:06.317Z,2.90
2023-06-06T19:06:40.192Z,3.30
2023-06-06T19:09:19.538Z,5.30
2023-06-06T19:11:59.470Z,3.70
2023-06-06T19:14:34.323Z,3.80
2023-06-06T19:17:12.121Z,3.10
2023-06-06T19:19:57.172Z,3.40
2023-06-06T19:22:39.582Z,3.20
2023-06-06T19:25:15.850Z,3.10
2023-06-06T19:27:45.054Z,3.00
2023-06-06T19:30:23.529Z,3.30
2023-06-06T19:32:54.128Z,3.10
2023-06-06T19:35:41.590Z,3.10
2023-06-06T19:38:34.682Z,3.10
2023-06-06T19:41:03.871Z,3.20
2023-06-06T19:43:37.325Z,3.40
2023-06-06T19:46:20.757Z,3.80
2023-06-06T19:48:54.730Z,3.50
2023-06-06T19:51:23.929Z,3.90
2023-06-06T19:54:25.993Z,3.70
2023-06-06T19:56:59.011Z,3.50
2023-06-06T20:02:12.732Z,3.90
2023-06-06T20:04:52.877Z,3.80
2023-06-06T20:07:34.294Z,3.30
2023-06-06T20:10:08.510Z,3.70
2023-06-06T20:12:42.148Z,3.60
2023-06-06T20:15:15.089Z,3.60
2023-06-06T20:17:50.369Z,3.80
2023-06-06T20:20:34.667Z,3.90
2023-06-06T20:23:06.648Z,4.00
2023-06-06T20:25:59.199Z,4.00
2023-06-06T20:28:41.431Z,3.80
2023-06-06T20:31:27.648Z,3.70
2023-06-06T20:34:01.815Z,3.40
2023-06-06T20:36:54.990Z,3.60
2023-06-06T20:39:43.053Z,3.70
2023-06-06T20:42:17.029Z,3.60
2023-06-06T20:44:48.892Z,3.90
2023-06-06T20:47:19.726Z,3.60
2023-06-06T20:49:53.126Z,3.40
2023-06-06T20:52:25.083Z,3.70
2023-06-06T20:55:12.038Z,3.80
2023-06-06T20:57:55.126Z,3.40
2023-06-06T21:00:23.097Z,3.40
2023-06-06T21:03:00.232Z,3.40
2023-06-06T21:05:28.990Z,3.70
2023-06-06T21:08:02.048Z,3.40
2023-06-06T21:10:38.117Z,3.40
2023-06-06T21:13:26.566Z,3.50
2023-06-06T21:16:02.638Z,3.90
2023-06-06T21:18:44.419Z,3.60
2023-06-06T21:21:18.330Z,4.20
2023-06-06T21:23:51.281Z,3.80
2023-06-06T21:26:22.664Z,4.20
2023-06-06T21:29:02.117Z,3.80
2023-06-06T21:31:42.463Z,4.00
2023-06-06T21:34:22.321Z,3.80
2023-06-06T21:36:51.312Z,3.90
2023-06-06T21:39:22.155Z,3.70
2023-06-06T21:41:55.136Z,4.20
2023-06-06T21:44:33.546Z,4.10
2023-06-06T21:47:18.418Z,3.60
2023-06-06T21:49:48.135Z,4.30
2023-06-06T21:52:16.020Z,4.00
2023-06-06T21:54:54.308Z,4.30
2023-06-06T21:57:50.647Z,4.40
2023-06-06T22:00:35.409Z,4.10
2023-06-06T22:03:18.716Z,4.30
2023-06-06T22:08:17.354Z,4.00
2023-06-06T22:11:07.157Z,4.10
2023-06-06T22:13:40.526Z,4.10
2023-06-06T22:16:14.578Z,4.40
2023-06-06T22:18:42.647Z,3.90
2023-06-06T22:21:16.515Z,4.10
2023-06-06T22:24:00.128Z,3.90
2023-06-06T22:26:46.793Z,3.90
2023-06-06T22:29:26.211Z,4.00
2023-06-06T22:31:59.154Z,4.50
2023-06-06T22:37:26.466Z,4.00
2023-06-06T22:40:09.291Z,3.50
2023-06-06T22:42:40.734Z,4.00
2023-06-06T22:45:09.417Z,4.10
2023-06-06T22:47:37.276Z,4.00
2023-06-06T22:50:08.028Z,4.30
2023-06-06T22:52:56.379Z,4.40
2023-06-06T22:55:49.424Z,3.90
2023-06-06T22:58:32.256Z,4.70
2023-06-06T23:01:07.534Z,4.00
2023-06-06T23:03:43.913Z,4.10
2023-06-06T23:06:17.661Z,4.00
2023-06-06T23:08:49.320Z,3.90
2023-06-06T23:11:28.377Z,4.00
2023-06-06T23:14:12.814Z,4.10
2023-06-06T23:16:45.705Z,4.30
2023-06-06T23:19:29.227Z,4.20
2023-06-06T23:22:03.066Z,4.00
2023-06-06T23:24:43.971Z,3.90
2023-06-06T23:27:33.298Z,3.90
2023-06-06T23:30:15.247Z,3.90
2023-06-06T23:32:56.892Z,4.30
2023-06-06T23:35:30.269Z,4.40
2023-06-06T23:37:58.149Z,4.30
2023-06-06T23:40:32.259Z,4.10
2023-06-06T23:43:13.739Z,4.30
2023-06-06T23:45:55.852Z,3.60
2023-06-06T23:48:48.943Z,3.80
2023-06-06T23:51:19.119Z,4.20
2023-06-06T23:53:46.995Z,3.60
2023-06-06T23:56:44.875Z,3.60
2023-06-06T23:59:21.559Z,3.80
